Terminal Aerodrome Forecast
Issued by NWS

Home | Current Version | Previous Version | Text Only | Print | Product List | Glossary On
Versions: 1 2 3 4 5 6 7 8 9 10 11 12
000
FTUS45 KGJT 240537 AAA
TAFCNY
TAF AMD
KCNY 240537Z 2406/2506 05004KT P6SM VCTS SCT080CB BKN150
      TEMPO 2406/2408 VRB10G18KT P6SM -TSRA BKN080CB OVC150
     FM240900 10005KT P6SM SCT200
     FM241900 29008KT P6SM FEW200=

USA.gov is the U.S. government's official web portal to all federal, state and local government web resources and services.